sensor_id;sensor_type;location;lat;lon;timestamp;pressure;altitude;pressure_sealevel;temperature;humidity
7433;BME280;32233;49.500;7.764;2023-03-01T00:00:39;99402.63;;;-2.22;73.92
7433;BME280;32233;49.500;7.764;2023-03-01T00:03:06;99404.28;;;-2.21;73.89
7433;BME280;32233;49.500;7.764;2023-03-01T00:05:32;99409.47;;;-2.21;73.93
7433;BME280;32233;49.500;7.764;2023-03-01T00:07:59;99407.91;;;-2.23;73.96
7433;BME280;32233;49.500;7.764;2023-03-01T00:10:25;99406.78;;;-2.19;73.93
7433;BME280;32233;49.500;7.764;2023-03-01T00:12:52;99403.47;;;-2.21;73.67
7433;BME280;32233;49.500;7.764;2023-03-01T00:15:19;99402.63;;;-2.22;74.20
7433;BME280;32233;49.500;7.764;2023-03-01T00:17:46;99407.72;;;-2.20;73.82
7433;BME280;32233;49.500;7.764;2023-03-01T00:20:12;99399.50;;;-2.27;74.04
7433;BME280;32233;49.500;7.764;2023-03-01T00:22:39;99395.03;;;-2.25;74.20
7433;BME280;32233;49.500;7.764;2023-03-01T00:25:05;99395.44;;;-2.31;74.40
7433;BME280;32233;49.500;7.764;2023-03-01T00:27:32;99389.50;;;-2.33;74.70
7433;BME280;32233;49.500;7.764;2023-03-01T00:29:59;99388.41;;;-2.29;74.69
7433;BME280;32233;49.500;7.764;2023-03-01T00:32:25;99401.63;;;-2.34;74.85
7433;BME280;32233;49.500;7.764;2023-03-01T00:34:52;99400.72;;;-2.33;74.63
7433;BME280;32233;49.500;7.764;2023-03-01T00:37:22;99390.16;;;-2.30;74.97
7433;BME280;32233;49.500;7.764;2023-03-01T00:39:49;99396.91;;;-2.27;74.98
7433;BME280;32233;49.500;7.764;2023-03-01T00:42:16;99389.81;;;-2.38;74.90
7433;BME280;32233;49.500;7.764;2023-03-01T00:44:43;99399.06;;;-2.34;75.24
7433;BME280;32233;49.500;7.764;2023-03-01T00:47:09;99397.78;;;-2.41;75.63
7433;BME280;32233;49.500;7.764;2023-03-01T00:49:36;99396.38;;;-2.32;75.53
7433;BME280;32233;49.500;7.764;2023-03-01T00:52:02;99400.91;;;-2.36;75.28
7433;BME280;32233;49.500;7.764;2023-03-01T00:54:29;99399.75;;;-2.44;76.09
7433;BME280;32233;49.500;7.764;2023-03-01T00:56:55;99408.09;;;-2.27;75.12
7433;BME280;32233;49.500;7.764;2023-03-01T00:59:22;99407.38;;;-2.29;75.26
7433;BME280;32233;49.500;7.764;2023-03-01T01:01:48;99406.94;;;-2.35;75.98
7433;BME280;32233;49.500;7.764;2023-03-01T01:04:15;99409.50;;;-2.35;76.07
7433;BME280;32233;49.500;7.764;2023-03-01T01:06:44;99410.53;;;-2.38;76.01
7433;BME280;32233;49.500;7.764;2023-03-01T01:09:14;99404.16;;;-2.46;76.53
7433;BME280;32233;49.500;7.764;2023-03-01T01:11:46;99403.53;;;-2.50;76.56
7433;BME280;32233;49.500;7.764;2023-03-01T01:14:14;99398.63;;;-2.55;77.51
7433;BME280;32233;49.500;7.764;2023-03-01T01:16:41;99392.81;;;-2.44;77.03
7433;BME280;32233;49.500;7.764;2023-03-01T01:19:09;99402.63;;;-2.49;76.80
7433;BME280;32233;49.500;7.764;2023-03-01T01:21:36;99384.69;;;-2.52;77.04
7433;BME280;32233;49.500;7.764;2023-03-01T01:24:03;99381.56;;;-2.57;77.44
7433;BME280;32233;49.500;7.764;2023-03-01T01:26:32;99376.94;;;-2.66;77.95
7433;BME280;32233;49.500;7.764;2023-03-01T01:29:01;99380.97;;;-2.62;77.82
7433;BME280;32233;49.500;7.764;2023-03-01T01:31:28;99376.56;;;-2.60;78.00
7433;BME280;32233;49.500;7.764;2023-03-01T01:33:56;99378.84;;;-2.56;77.98
7433;BME280;32233;49.500;7.764;2023-03-01T01:36:23;99370.75;;;-2.64;78.37
7433;BME280;32233;49.500;7.764;2023-03-01T01:38:50;99363.97;;;-2.66;78.95
7433;BME280;32233;49.500;7.764;2023-03-01T01:41:18;99362.50;;;-2.70;79.08
7433;BME280;32233;49.500;7.764;2023-03-01T01:46:43;99358.28;;;-2.71;79.25
7433;BME280;32233;49.500;7.764;2023-03-01T01:49:28;99354.84;;;-2.72;79.01
7433;BME280;32233;49.500;7.764;2023-03-01T01:52:18;99352.72;;;-2.80;79.15
7433;BME280;32233;49.500;7.764;2023-03-01T01:54:57;99348.69;;;-2.84;79.65
7433;BME280;32233;49.500;7.764;2023-03-01T01:57:34;99334.81;;;-2.83;79.61
7433;BME280;32233;49.500;7.764;2023-03-01T02:00:06;99344.50;;;-2.86;80.09
7433;BME280;32233;49.500;7.764;2023-03-01T02:02:39;99332.06;;;-2.94;80.33
7433;BME280;32233;49.500;7.764;2023-03-01T02:05:22;99330.38;;;-2.95;80.45
7433;BME280;32233;49.500;7.764;2023-03-01T02:07:52;99320.59;;;-2.90;80.32
7433;BME280;32233;49.500;7.764;2023-03-01T02:10:22;99318.38;;;-2.96;80.82
7433;BME280;32233;49.500;7.764;2023-03-01T02:12:50;99313.03;;;-2.93;80.58
7433;BME280;32233;49.500;7.764;2023-03-01T02:15:17;99312.75;;;-3.03;81.42
7433;BME280;32233;49.500;7.764;2023-03-01T02:17:43;99309.44;;;-3.05;81.37
7433;BME280;32233;49.500;7.764;2023-03-01T02:20:23;99307.22;;;-2.96;81.21
7433;BME280;32233;49.500;7.764;2023-03-01T02:22:53;99308.50;;;-3.04;81.26
7433;BME280;32233;49.500;7.764;2023-03-01T02:25:26;99298.72;;;-3.13;81.88
7433;BME280;32233;49.500;7.764;2023-03-01T02:27:58;99298.84;;;-3.14;82.08
7433;BME280;32233;49.500;7.764;2023-03-01T02:30:27;99300.47;;;-2.99;81.60
7433;BME280;32233;49.500;7.764;2023-03-01T02:32:56;99302.91;;;-3.10;81.86
7433;BME280;32233;49.500;7.764;2023-03-01T02:35:35;99298.16;;;-3.04;82.04
7433;BME280;32233;49.500;7.764;2023-03-01T02:38:03;99293.81;;;-3.03;81.76
7433;BME280;32233;49.500;7.764;2023-03-01T02:40:33;99291.91;;;-3.14;82.62
7433;BME280;32233;49.500;7.764;2023-03-01T02:43:01;99291.09;;;-3.14;82.57
7433;BME280;32233;49.500;7.764;2023-03-01T02:45:30;99296.69;;;-3.08;82.43
7433;BME280;32233;49.500;7.764;2023-03-01T02:47:57;99281.84;;;-3.18;83.19
7433;BME280;32233;49.500;7.764;2023-03-01T02:53:04;99291.69;;;-3.11;82.63
7433;BME280;32233;49.500;7.764;2023-03-01T02:55:35;99283.31;;;-3.14;82.50
7433;BME280;32233;49.500;7.764;2023-03-01T02:58:03;99279.50;;;-3.09;82.58
7433;BME280;32233;49.500;7.764;2023-03-01T03:00:40;99281.44;;;-3.12;82.58
7433;BME280;32233;49.500;7.764;2023-03-01T03:03:17;99274.69;;;-3.15;82.79
7433;BME280;32233;49.500;7.764;2023-03-01T03:05:46;99283.56;;;-3.05;81.76
7433;BME280;32233;49.500;7.764;2023-03-01T03:08:14;99269.34;;;-3.12;82.48
7433;BME280;32233;49.500;7.764;2023-03-01T03:10:42;99270.66;;;-3.19;83.83
7433;BME280;32233;49.500;7.764;2023-03-01T03:13:13;99264.47;;;-3.16;83.26
7433;BME280;32233;49.500;7.764;2023-03-01T03:15:42;99252.44;;;-3.03;82.90
7433;BME280;32233;49.500;7.764;2023-03-01T03:18:13;99246.06;;;-3.12;82.87
7433;BME280;32233;49.500;7.764;2023-03-01T03:20:41;99245.06;;;-3.09;83.03
7433;BME280;32233;49.500;7.764;2023-03-01T03:23:08;99243.94;;;-3.05;82.82
7433;BME280;32233;49.500;7.764;2023-03-01T03:25:35;99248.59;;;-3.10;83.37
7433;BME280;32233;49.500;7.764;2023-03-01T03:28:05;99252.38;;;-3.16;83.05
7433;BME280;32233;49.500;7.764;2023-03-01T03:30:38;99251.94;;;-3.22;83.81
7433;BME280;32233;49.500;7.764;2023-03-01T03:33:06;99240.94;;;-3.26;83.87
7433;BME280;32233;49.500;7.764;2023-03-01T03:35:39;99248.31;;;-3.20;83.88
7433;BME280;32233;49.500;7.764;2023-03-01T03:38:08;99241.25;;;-3.04;82.99
7433;BME280;32233;49.500;7.764;2023-03-01T03:40:47;99247.25;;;-3.03;82.93
7433;BME280;32233;49.500;7.764;2023-03-01T03:43:16;99240.19;;;-3.14;82.87
7433;BME280;32233;49.500;7.764;2023-03-01T03:45:44;99239.44;;;-3.16;83.01
7433;BME280;32233;49.500;7.764;2023-03-01T03:48:11;99231.84;;;-3.19;83.53
7433;BME280;32233;49.500;7.764;2023-03-01T03:50:40;99224.72;;;-3.01;82.72
7433;BME280;32233;49.500;7.764;2023-03-01T03:53:10;99228.25;;;-3.16;82.89
7433;BME280;32233;49.500;7.764;2023-03-01T03:55:37;99221.69;;;-3.08;83.34
7433;BME280;32233;49.500;7.764;2023-03-01T03:58:09;99220.34;;;-3.28;84.36
7433;BME280;32233;49.500;7.764;2023-03-01T04:00:40;99220.81;;;-3.35;84.34
7433;BME280;32233;49.500;7.764;2023-03-01T04:03:08;99222.91;;;-3.28;84.60
7433;BME280;32233;49.500;7.764;2023-03-01T04:05:36;99231.25;;;-3.22;84.59
7433;BME280;32233;49.500;7.764;2023-03-01T04:08:03;99225.13;;;-3.21;84.04
7433;BME280;32233;49.500;7.764;2023-03-01T04:10:44;99222.16;;;-3.15;83.55
7433;BME280;32233;49.500;7.764;2023-03-01T04:13:13;99219.50;;;-3.14;83.81
7433;BME280;32233;49.500;7.764;2023-03-01T04:15:41;99217.91;;;-3.16;83.83
7433;BME280;32233;49.500;7.764;2023-03-01T04:18:13;99218.09;;;-3.19;83.98
7433;BME280;32233;49.500;7.764;2023-03-01T04:20:40;99223.66;;;-3.26;84.02
7433;BME280;32233;49.500;7.764;2023-03-01T04:23:09;99213.63;;;-3.30;84.63
7433;BME280;32233;49.500;7.764;2023-03-01T04:25:51;99217.09;;;-3.17;83.95
7433;BME280;32233;49.500;7.764;2023-03-01T04:30:52;99216.00;;;-3.27;84.62
7433;BME280;32233;49.500;7.764;2023-03-01T04:33:19;99207.03;;;-3.21;84.41
7433;BME280;32233;49.500;7.764;2023-03-01T04:35:46;99211.09;;;-3.17;83.96
7433;BME280;32233;49.500;7.764;2023-03-01T04:38:17;99213.22;;;-3.24;84.56
7433;BME280;32233;49.500;7.764;2023-03-01T04:40:44;99214.22;;;-3.12;84.17
7433;BME280;32233;49.500;7.764;2023-03-01T04:43:11;99215.91;;;-3.26;85.07
7433;BME280;32233;49.500;7.764;2023-03-01T04:45:39;99214.88;;;-3.23;84.52
7433;BME280;32233;49.500;7.764;2023-03-01T04:48:06;99219.97;;;-3.21;84.45
7433;BME280;32233;49.500;7.764;2023-03-01T04:50:32;99217.47;;;-3.23;84.55
7433;BME280;32233;49.500;7.764;2023-03-01T04:52:59;99214.78;;;-3.21;84.50
7433;BME280;32233;49.500;7.764;2023-03-01T04:55:26;99215.97;;;-3.13;84.28
7433;BME280;32233;49.500;7.764;2023-03-01T04:57:53;99220.97;;;-3.24;84.20
7433;BME280;32233;49.500;7.764;2023-03-01T05:00:21;99220.53;;;-3.31;85.11
7433;BME280;32233;49.500;7.764;2023-03-01T05:02:51;99215.50;;;-3.19;85.06
7433;BME280;32233;49.500;7.764;2023-03-01T05:05:24;99210.28;;;-3.32;85.25
7433;BME280;32233;49.500;7.764;2023-03-01T05:07:53;99213.69;;;-3.17;84.89
7433;BME280;32233;49.500;7.764;2023-03-01T05:10:20;99205.56;;;-3.26;85.05
7433;BME280;32233;49.500;7.764;2023-03-01T05:12:47;99215.63;;;-3.21;85.15
7433;BME280;32233;49.500;7.764;2023-03-01T05:15:14;99213.78;;;-3.33;85.81
7433;BME280;32233;49.500;7.764;2023-03-01T05:17:41;99221.38;;;-3.30;86.06
7433;BME280;32233;49.500;7.764;2023-03-01T05:20:08;99216.34;;;-3.19;85.60
7433;BME280;32233;49.500;7.764;2023-03-01T05:22:35;99215.50;;;-3.19;85.05
7433;BME280;32233;49.500;7.764;2023-03-01T05:25:03;99206.75;;;-3.17;85.49
7433;BME280;32233;49.500;7.764;2023-03-01T05:27:30;99208.69;;;-3.20;85.68
7433;BME280;32233;49.500;7.764;2023-03-01T05:29:56;99205.63;;;-3.13;85.33
7433;BME280;32233;49.500;7.764;2023-03-01T05:32:23;99212.84;;;-3.18;85.30
7433;BME280;32233;49.500;7.764;2023-03-01T05:34:49;99206.34;;;-3.11;84.58
7433;BME280;32233;49.500;7.764;2023-03-01T05:37:18;99206.50;;;-3.00;84.63
7433;BME280;32233;49.500;7.764;2023-03-01T05:39:45;99211.34;;;-3.08;84.62
7433;BME280;32233;49.500;7.764;2023-03-01T05:42:14;99211.63;;;-3.12;85.40
7433;BME280;32233;49.500;7.764;2023-03-01T05:44:40;99218.44;;;-2.97;84.67
7433;BME280;32233;49.500;7.764;2023-03-01T05:47:07;99207.44;;;-3.01;84.62
7433;BME280;32233;49.500;7.764;2023-03-01T05:49:33;99214.31;;;-2.87;83.62
7433;BME280;32233;49.500;7.764;2023-03-01T05:52:02;99211.84;;;-2.88;83.48
7433;BME280;32233;49.500;7.764;2023-03-01T05:54:29;99219.75;;;-2.77;83.08
7433;BME280;32233;49.500;7.764;2023-03-01T05:56:55;99215.69;;;-2.81;83.55
7433;BME280;32233;49.500;7.764;2023-03-01T05:59:22;99217.13;;;-2.90;84.01
7433;BME280;32233;49.500;7.764;2023-03-01T06:01:49;99213.84;;;-2.79;83.96
7433;BME280;32233;49.500;7.764;2023-03-01T06:04:16;99222.38;;;-2.91;83.91
7433;BME280;32233;49.500;7.764;2023-03-01T06:06:42;99215.13;;;-2.86;83.98
7433;BME280;32233;49.500;7.764;2023-03-01T06:09:09;99213.13;;;-2.81;83.05
7433;BME280;32233;49.500;7.764;2023-03-01T06:11:36;99212.66;;;-2.88;83.79
7433;BME280;32233;49.500;7.764;2023-03-01T06:14:04;99206.56;;;-2.87;84.43
7433;BME280;32233;49.500;7.764;2023-03-01T06:16:32;99206.06;;;-2.79;83.30
7433;BME280;32233;49.500;7.764;2023-03-01T06:18:59;99208.75;;;-2.81;83.71
7433;BME280;32233;49.500;7.764;2023-03-01T06:21:25;99209.09;;;-2.72;83.61
7433;BME280;32233;49.500;7.764;2023-03-01T06:23:52;99210.56;;;-2.68;82.87
7433;BME280;32233;49.500;7.764;2023-03-01T06:26:18;99209.19;;;-2.74;83.38
7433;BME280;32233;49.500;7.764;2023-03-01T06:28:45;99203.63;;;-2.68;82.78
7433;BME280;32233;49.500;7.764;2023-03-01T06:31:12;99206.03;;;-2.65;82.64
7433;BME280;32233;49.500;7.764;2023-03-01T06:33:39;99198.97;;;-2.63;82.99
7433;BME280;32233;49.500;7.764;2023-03-01T06:36:06;99199.50;;;-2.58;82.19
7433;BME280;32233;49.500;7.764;2023-03-01T06:38:33;99196.09;;;-2.45;81.42
7433;BME280;32233;49.500;7.764;2023-03-01T06:41:00;99196.66;;;-2.40;81.61
7433;BME280;32233;49.500;7.764;2023-03-01T06:43:27;99197.38;;;-2.26;80.61
7433;BME280;32233;49.500;7.764;2023-03-01T06:45:54;99190.34;;;-2.23;80.42
7433;BME280;32233;49.500;7.764;2023-03-01T06:48:20;99191.19;;;-2.10;79.97
7433;BME280;32233;49.500;7.764;2023-03-01T06:50:47;99196.25;;;-2.09;79.20
7433;BME280;32233;49.500;7.764;2023-03-01T06:53:13;99193.78;;;-2.10;79.41
7433;BME280;32233;49.500;7.764;2023-03-01T06:55:40;99195.44;;;-1.96;78.74
7433;BME280;32233;49.500;7.764;2023-03-01T06:58:06;99197.31;;;-1.86;78.00
7433;BME280;32233;49.500;7.764;2023-03-01T07:00:33;99196.28;;;-1.83;77.46
7433;BME280;32233;49.500;7.764;2023-03-01T07:03:01;99202.06;;;-1.92;77.92
7433;BME280;32233;49.500;7.764;2023-03-01T07:05:29;99197.94;;;-1.82;77.56
7433;BME280;32233;49.500;7.764;2023-03-01T07:07:56;99195.84;;;-1.77;77.10
7433;BME280;32233;49.500;7.764;2023-03-01T07:10:23;99192.31;;;-1.76;77.73
7433;BME280;32233;49.500;7.764;2023-03-01T07:12:54;99185.13;;;-1.47;76.46
7433;BME280;32233;49.500;7.764;2023-03-01T07:15:20;99191.97;;;-1.46;75.26
7433;BME280;32233;49.500;7.764;2023-03-01T07:17:47;99190.94;;;-1.56;75.86
7433;BME280;32233;49.500;7.764;2023-03-01T07:20:17;99195.53;;;-1.23;74.10
7433;BME280;32233;49.500;7.764;2023-03-01T07:22:44;99178.59;;;-1.16;73.72
7433;BME280;32233;49.500;7.764;2023-03-01T07:25:11;99188.00;;;-1.26;74.60
7433;BME280;32233;49.500;7.764;2023-03-01T07:27:37;99187.22;;;-0.91;73.28
7433;BME280;32233;49.500;7.764;2023-03-01T07:30:04;99187.06;;;-1.01;72.89
7433;BME280;32233;49.500;7.764;2023-03-01T07:32:31;99172.72;;;-0.23;70.45
7433;BME280;32233;49.500;7.764;2023-03-01T07:34:58;99178.25;;;-0.28;69.28
7433;BME280;32233;49.500;7.764;2023-03-01T07:37:24;99175.81;;;-0.07;68.37
7433;BME280;32233;49.500;7.764;2023-03-01T07:39:51;99183.03;;;-0.11;67.36
7433;BME280;32233;49.500;7.764;2023-03-01T07:42:17;99173.34;;;0.47;66.57
7433;BME280;32233;49.500;7.764;2023-03-01T07:44:44;99176.53;;;0.51;65.11
7433;BME280;32233;49.500;7.764;2023-03-01T07:47:10;99176.91;;;0.58;65.45
7433;BME280;32233;49.500;7.764;2023-03-01T07:49:37;99172.97;;;0.63;65.03
7433;BME280;32233;49.500;7.764;2023-03-01T07:52:03;99170.63;;;0.60;64.87
7433;BME280;32233;49.500;7.764;2023-03-01T07:54:30;99170.56;;;0.94;64.36
7433;BME280;32233;49.500;7.764;2023-03-01T07:56:57;99170.91;;;1.33;61.96
7433;BME280;32233;49.500;7.764;2023-03-01T07:59:23;99168.44;;;1.31;61.91
7433;BME280;32233;49.500;7.764;2023-03-01T08:01:56;99159.09;;;1.49;61.10
7433;BME280;32233;49.500;7.764;2023-03-01T08:04:23;99157.28;;;2.13;60.12
7433;BME280;32233;49.500;7.764;2023-03-01T08:06:51;99146.25;;;2.40;58.76
7433;BME280;32233;49.500;7.764;2023-03-01T08:09:17;99153.88;;;1.70;59.28
7433;BME280;32233;49.500;7.764;2023-03-01T08:11:44;99164.34;;;2.32;58.24
7433;BME280;32233;49.500;7.764;2023-03-01T08:14:11;99155.81;;;2.60;60.24
7433;BME280;32233;49.500;7.764;2023-03-01T08:16:38;99148.31;;;2.86;56.47
7433;BME280;32233;49.500;7.764;2023-03-01T08:19:09;99142.69;;;3.49;55.10
7433;BME280;32233;49.500;7.764;2023-03-01T08:21:36;99156.13;;;2.67;56.87
7433;BME280;32233;49.500;7.764;2023-03-01T08:24:04;99158.41;;;2.20;59.01
7433;BME280;32233;49.500;7.764;2023-03-01T08:26:33;99149.84;;;3.08;57.05
7433;BME280;32233;49.500;7.764;2023-03-01T08:29:00;99140.44;;;2.17;59.09
7433;BME280;32233;49.500;7.764;2023-03-01T08:31:39;99138.41;;;2.70;57.12
7433;BME280;32233;49.500;7.764;2023-03-01T08:34:08;99135.00;;;3.09;56.49
7433;BME280;32233;49.500;7.764;2023-03-01T08:36:38;99141.97;;;2.69;57.50
7433;BME280;32233;49.500;7.764;2023-03-01T08:39:06;99127.56;;;3.14;55.12
7433;BME280;32233;49.500;7.764;2023-03-01T08:41:34;99119.88;;;3.22;55.23
7433;BME280;32233;49.500;7.764;2023-03-01T08:44:00;99125.09;;;3.12;55.98
7433;BME280;32233;49.500;7.764;2023-03-01T08:46:29;99130.59;;;3.09;56.04
7433;BME280;32233;49.500;7.764;2023-03-01T08:48:56;99123.03;;;3.26;54.97
7433;BME280;32233;49.500;7.764;2023-03-01T08:51:23;99118.63;;;3.55;54.36
7433;BME280;32233;49.500;7.764;2023-03-01T08:53:50;99121.88;;;3.67;54.08
7433;BME280;32233;49.500;7.764;2023-03-01T08:56:17;99112.03;;;4.63;50.74
7433;BME280;32233;49.500;7.764;2023-03-01T08:58:48;99100.81;;;4.15;51.83
7433;BME280;32233;49.500;7.764;2023-03-01T09:01:17;99098.97;;;4.99;49.84
7433;BME280;32233;49.500;7.764;2023-03-01T09:03:45;99106.06;;;4.15;51.81
7433;BME280;32233;49.500;7.764;2023-03-01T09:06:12;99097.75;;;3.92;52.26
7433;BME280;32233;49.500;7.764;2023-03-01T09:08:42;99101.25;;;4.11;52.23
7433;BME280;32233;49.500;7.764;2023-03-01T09:11:11;99086.41;;;5.02;49.54
7433;BME280;32233;49.500;7.764;2023-03-01T09:13:38;99097.75;;;4.57;50.55
7433;BME280;32233;49.500;7.764;2023-03-01T09:16:07;99090.19;;;4.72;49.38
7433;BME280;32233;49.500;7.764;2023-03-01T09:18:35;99092.47;;;6.25;46.80
7433;BME280;32233;49.500;7.764;2023-03-01T09:21:06;99090.91;;;6.06;47.06
7433;BME280;32233;49.500;7.764;2023-03-01T09:23:40;99088.09;;;4.76;48.77
7433;BME280;32233;49.500;7.764;2023-03-01T09:26:12;99096.47;;;4.79;48.95
7433;BME280;32233;49.500;7.764;2023-03-01T09:28:39;99088.88;;;4.13;50.80
7433;BME280;32233;49.500;7.764;2023-03-01T09:31:07;99087.91;;;3.77;52.25
7433;BME280;32233;49.500;7.764;2023-03-01T09:33:34;99092.72;;;3.71;52.34
7433;BME280;32233;49.500;7.764;2023-03-01T09:36:03;99099.97;;;3.11;54.27
7433;BME280;32233;49.500;7.764;2023-03-01T09:38:30;99092.78;;;4.27;51.59
7433;BME280;32233;49.500;7.764;2023-03-01T09:40:57;99085.91;;;4.26;50.60
7433;BME280;32233;49.500;7.764;2023-03-01T09:43:31;99085.59;;;3.64;51.95
7433;BME280;32233;49.500;7.764;2023-03-01T09:46:04;99073.50;;;4.28;51.96
7433;BME280;32233;49.500;7.764;2023-03-01T09:48:39;99078.25;;;4.14;51.40
7433;BME280;32233;49.500;7.764;2023-03-01T09:51:13;99069.22;;;4.72;51.20
7433;BME280;32233;49.500;7.764;2023-03-01T09:53:46;99061.09;;;5.63;48.83
7433;BME280;32233;49.500;7.764;2023-03-01T09:56:19;99063.09;;;6.80;45.56
7433;BME280;32233;49.500;7.764;2023-03-01T09:58:52;99068.22;;;6.39;46.78
7433;BME280;32233;49.500;7.764;2023-03-01T10:09:41;99068.91;;;5.29;48.52
7433;BME280;32233;49.500;7.764;2023-03-01T10:12:12;99074.22;;;5.89;47.10
7433;BME280;32233;49.500;7.764;2023-03-01T10:17:38;99073.97;;;5.48;47.35
7433;BME280;32233;49.500;7.764;2023-03-01T10:20:23;99079.69;;;5.26;48.11
7433;BME280;32233;49.500;7.764;2023-03-01T10:22:50;99063.28;;;5.93;46.46
7433;BME280;32233;49.500;7.764;2023-03-01T10:31:15;99054.28;;;6.38;45.88
7433;BME280;32233;49.500;7.764;2023-03-01T10:33:44;99057.53;;;6.99;44.43
7433;BME280;32233;49.500;7.764;2023-03-01T10:36:11;99046.53;;;7.20;43.09
7433;BME280;32233;49.500;7.764;2023-03-01T10:38:55;99046.00;;;7.41;42.72
7433;BME280;32233;49.500;7.764;2023-03-01T10:41:25;99037.03;;;8.30;41.87
7433;BME280;32233;49.500;7.764;2023-03-01T10:43:54;99045.88;;;8.46;41.52
7433;BME280;32233;49.500;7.764;2023-03-01T10:49:14;99038.47;;;7.05;43.97
7433;BME280;32233;49.500;7.764;2023-03-01T10:51:43;99048.78;;;5.81;46.91
7433;BME280;32233;49.500;7.764;2023-03-01T10:54:27;99037.22;;;5.92;45.51
7433;BME280;32233;49.500;7.764;2023-03-01T10:56:56;99032.34;;;6.72;44.35
7433;BME280;32233;49.500;7.764;2023-03-01T10:59:36;99027.41;;;7.51;43.59
7433;BME280;32233;49.500;7.764;2023-03-01T11:07:28;99024.66;;;7.36;42.45
7433;BME280;32233;49.500;7.764;2023-03-01T11:09:54;99012.03;;;6.99;43.48
7433;BME280;32233;49.500;7.764;2023-03-01T11:12:21;99015.00;;;7.84;41.54
7433;BME280;32233;49.500;7.764;2023-03-01T11:14:50;99013.03;;;8.56;40.49
7433;BME280;32233;49.500;7.764;2023-03-01T11:17:25;99010.69;;;8.84;39.87
7433;BME280;32233;49.500;7.764;2023-03-01T11:22:48;99005.34;;;7.68;41.53
7433;BME280;32233;49.500;7.764;2023-03-01T11:25:17;99000.84;;;7.05;43.12
7433;BME280;32233;49.500;7.764;2023-03-01T11:27:46;98999.41;;;8.76;40.08
7433;BME280;32233;49.500;7.764;2023-03-01T11:30:21;99014.13;;;7.44;41.61
7433;BME280;32233;49.500;7.764;2023-03-01T11:32:59;99008.63;;;7.70;42.29
7433;BME280;32233;49.500;7.764;2023-03-01T11:35:29;99009.69;;;8.31;40.79
7433;BME280;32233;49.500;7.764;2023-03-01T11:46:33;98987.44;;;8.42;41.58
7433;BME280;32233;49.500;7.764;2023-03-01T11:54:34;98969.06;;;9.91;38.49
7433;BME280;32233;49.500;7.764;2023-03-01T11:57:43;98963.69;;;10.00;37.72
7433;BME280;32233;49.500;7.764;2023-03-01T12:08:45;98957.09;;;9.45;38.80
7433;BME280;32233;49.500;7.764;2023-03-01T12:14:12;98950.97;;;9.14;39.19
7433;BME280;32233;49.500;7.764;2023-03-01T12:20:21;98916.16;;;11.41;34.68
7433;BME280;32233;49.500;7.764;2023-03-01T12:31:35;98929.25;;;8.52;40.17
7433;BME280;32233;49.500;7.764;2023-03-01T12:34:32;98913.47;;;10.14;37.52
7433;BME280;32233;49.500;7.764;2023-03-01T12:42:54;98896.09;;;9.10;39.43
7433;BME280;32233;49.500;7.764;2023-03-01T12:45:43;98875.69;;;10.57;37.27
7433;BME280;32233;49.500;7.764;2023-03-01T12:50:51;98863.63;;;9.90;37.71
7433;BME280;32233;49.500;7.764;2023-03-01T12:53:58;98873.75;;;9.21;39.36
7433;BME280;32233;49.500;7.764;2023-03-01T12:56:29;98854.31;;;10.30;37.33
7433;BME280;32233;49.500;7.764;2023-03-01T13:01:47;98865.81;;;9.21;38.83
7433;BME280;32233;49.500;7.764;2023-03-01T13:07:21;98847.38;;;8.30;40.28
7433;BME280;32233;49.500;7.764;2023-03-01T13:09:50;98849.44;;;8.43;40.55
7433;BME280;32233;49.500;7.764;2023-03-01T13:20:19;98850.09;;;8.45;41.48
7433;BME280;32233;49.500;7.764;2023-03-01T13:22:48;98839.94;;;6.54;44.00
7433;BME280;32233;49.500;7.764;2023-03-01T13:25:27;98839.13;;;6.04;46.50
7433;BME280;32233;49.500;7.764;2023-03-01T13:31:08;98829.75;;;5.35;46.88
7433;BME280;32233;49.500;7.764;2023-03-01T13:33:40;98842.34;;;5.82;47.10
7433;BME280;32233;49.500;7.764;2023-03-01T13:36:09;98830.69;;;5.68;46.73
7433;BME280;32233;49.500;7.764;2023-03-01T13:49:47;98814.97;;;5.76;47.74
7433;BME280;32233;49.500;7.764;2023-03-01T13:54:52;98820.00;;;5.61;47.46
7433;BME280;32233;49.500;7.764;2023-03-01T13:57:23;98823.06;;;5.49;47.89
7433;BME280;32233;49.500;7.764;2023-03-01T13:59:51;98821.81;;;5.61;48.03
7433;BME280;32233;49.500;7.764;2023-03-01T14:02:17;98818.03;;;5.55;47.82
7433;BME280;32233;49.500;7.764;2023-03-01T14:04:56;98816.88;;;5.58;47.29
7433;BME280;32233;49.500;7.764;2023-03-01T14:07:23;98810.63;;;5.51;47.74
7433;BME280;32233;49.500;7.764;2023-03-01T14:09:53;98804.53;;;5.42;47.93
7433;BME280;32233;49.500;7.764;2023-03-01T14:12:47;98799.28;;;5.42;48.26
7433;BME280;32233;49.500;7.764;2023-03-01T14:15:32;98792.59;;;5.47;47.97
7433;BME280;32233;49.500;7.764;2023-03-01T14:20:32;98799.75;;;5.29;47.54
7433;BME280;32233;49.500;7.764;2023-03-01T14:23:09;98806.31;;;5.33;47.76
7433;BME280;32233;49.500;7.764;2023-03-01T14:25:38;98809.75;;;5.34;47.76
7433;BME280;32233;49.500;7.764;2023-03-01T14:28:35;98790.28;;;4.94;49.16
7433;BME280;32233;49.500;7.764;2023-03-01T14:31:43;98789.13;;;4.96;48.65
7433;BME280;32233;49.500;7.764;2023-03-01T14:34:24;98788.75;;;5.26;48.54
7433;BME280;32233;49.500;7.764;2023-03-01T14:36:51;98790.41;;;5.27;48.41
7433;BME280;32233;49.500;7.764;2023-03-01T14:39:20;98788.47;;;5.37;48.03
7433;BME280;32233;49.500;7.764;2023-03-01T14:41:48;98779.78;;;5.36;48.26
7433;BME280;32233;49.500;7.764;2023-03-01T14:44:20;98779.88;;;5.10;47.71
7433;BME280;32233;49.500;7.764;2023-03-01T14:46:53;98779.22;;;5.16;48.00
7433;BME280;32233;49.500;7.764;2023-03-01T14:49:27;98779.41;;;5.15;47.92
7433;BME280;32233;49.500;7.764;2023-03-01T14:52:05;98788.72;;;5.17;48.07
7433;BME280;32233;49.500;7.764;2023-03-01T14:54:44;98791.38;;;5.26;48.24
7433;BME280;32233;49.500;7.764;2023-03-01T14:57:26;98784.72;;;5.39;47.40
7433;BME280;32233;49.500;7.764;2023-03-01T14:59:59;98777.78;;;5.30;47.22
7433;BME280;32233;49.500;7.764;2023-03-01T15:02:30;98791.06;;;5.29;46.78
7433;BME280;32233;49.500;7.764;2023-03-01T15:05:00;98791.75;;;5.31;46.94
7433;BME280;32233;49.500;7.764;2023-03-01T15:07:31;98789.63;;;5.42;46.22
7433;BME280;32233;49.500;7.764;2023-03-01T15:09:59;98799.63;;;5.39;46.02
7433;BME280;32233;49.500;7.764;2023-03-01T15:14:54;98792.97;;;5.10;46.59
7433;BME280;32233;49.500;7.764;2023-03-01T15:17:32;98791.72;;;5.22;46.27
7433;BME280;32233;49.500;7.764;2023-03-01T15:20:03;98779.56;;;5.21;46.15
7433;BME280;32233;49.500;7.764;2023-03-01T15:22:30;98785.47;;;5.15;46.33
7433;BME280;32233;49.500;7.764;2023-03-01T15:24:57;98772.31;;;5.07;46.05
7433;BME280;32233;49.500;7.764;2023-03-01T15:27:25;98781.63;;;5.02;47.07